createdAt,value
2017-11-28T00:02:07.053Z,92.60
2017-11-28T00:04:36.263Z,92.74
2017-11-28T00:07:05.460Z,92.42
2017-11-28T00:09:34.647Z,92.21
2017-11-28T00:12:03.883Z,92.09
2017-11-28T00:14:33.068Z,92.14
2017-11-28T00:17:02.373Z,91.99
2017-11-28T00:19:31.652Z,91.93
2017-11-28T00:22:00.841Z,91.56
2017-11-28T00:24:30.096Z,91.66
2017-11-28T00:27:00.226Z,91.41
2017-11-28T00:29:30.179Z,91.44
2017-11-28T00:31:59.376Z,91.50
2017-11-28T00:34:28.554Z,91.48
2017-11-28T00:36:57.811Z,91.25
2017-11-28T00:39:26.992Z,91.09
2017-11-28T00:41:56.183Z,91.08
2017-11-28T00:44:25.440Z,91.01
2017-11-28T00:46:55.440Z,90.94
2017-11-28T00:49:25.378Z,91.10
2017-11-28T00:51:54.595Z,91.20
2017-11-28T00:54:23.769Z,91.36
2017-11-28T00:56:52.947Z,91.23
2017-11-28T00:59:22.923Z,91.19
2017-11-28T01:01:52.133Z,91.63
2017-11-28T01:04:21.326Z,91.41
2017-11-28T01:06:50.498Z,91.34
2017-11-28T01:09:20.468Z,91.58
2017-11-28T01:11:50.429Z,91.06
2017-11-28T01:14:19.649Z,91.41
2017-11-28T01:16:48.833Z,91.54
2017-11-28T01:19:18.012Z,91.76
2017-11-28T01:21:47.303Z,91.43
2017-11-28T01:24:17.219Z,91.26
2017-11-28T01:26:46.424Z,91.40
2017-11-28T01:29:16.441Z,91.11
2017-11-28T01:31:45.720Z,91.02
2017-11-28T01:34:14.920Z,90.97
2017-11-28T01:36:44.180Z,90.85
2017-11-28T01:39:13.453Z,90.85
2017-11-28T01:41:42.669Z,90.86
2017-11-28T01:44:11.852Z,90.72
2017-11-28T01:46:41.029Z,90.48
2017-11-28T01:49:10.298Z,90.44
2017-11-28T01:51:39.576Z,90.28
2017-11-28T01:54:09.555Z,90.19
2017-11-28T01:56:38.733Z,90.41
2017-11-28T01:59:07.955Z,90.34
2017-11-28T02:01:37.134Z,90.33
2017-11-28T02:04:06.548Z,90.83
2017-11-28T02:06:35.767Z,90.59
2017-11-28T02:09:04.988Z,90.60
2017-11-28T02:11:34.221Z,90.41
2017-11-28T02:14:03.405Z,90.41
2017-11-28T02:16:32.573Z,90.35
2017-11-28T02:19:02.584Z,90.42
2017-11-28T02:21:32.550Z,89.98
2017-11-28T02:24:01.774Z,90.33
2017-11-28T02:26:30.938Z,90.80
2017-11-28T02:29:00.157Z,90.51
2017-11-28T02:31:29.402Z,90.41
2017-11-28T02:33:59.341Z,90.35
2017-11-28T02:36:28.527Z,90.15
2017-11-28T02:38:57.715Z,90.34
2017-11-28T02:41:27.931Z,90.19
2017-11-28T02:43:59.402Z,90.25
2017-11-28T02:46:28.615Z,90.12
2017-11-28T02:49:10.195Z,90.26
2017-11-28T02:51:40.277Z,90.12
2017-11-28T02:54:09.474Z,90.21
2017-11-28T02:56:39.441Z,90.51
2017-11-28T03:12:41.905Z,90.88
2017-11-28T03:15:15.760Z,90.67
2017-11-28T03:17:45.752Z,90.78
2017-11-28T03:33:45.188Z,90.97
2017-11-28T03:36:14.401Z,90.56
2017-11-28T03:38:43.761Z,90.78
2017-11-28T03:41:13.708Z,90.72
2017-11-28T03:43:42.923Z,90.92
2017-11-28T03:46:15.941Z,90.94
2017-11-28T03:48:46.012Z,90.74
2017-11-28T03:51:15.201Z,90.48
2017-11-28T03:53:44.409Z,90.60
2017-11-28T03:56:16.126Z,90.28
2017-11-28T03:58:46.098Z,90.40
2017-11-28T04:01:15.279Z,90.05
2017-11-28T04:03:44.448Z,90.14
2017-11-28T04:06:13.705Z,90.04
2017-11-28T04:08:42.942Z,90.12
2017-11-28T04:11:12.232Z,89.83
2017-11-28T04:13:42.256Z,89.87
2017-11-28T04:16:12.955Z,89.70
2017-11-28T04:18:42.157Z,90.11
2017-11-28T04:21:11.345Z,90.28
2017-11-28T04:23:40.565Z,90.08
2017-11-28T04:26:09.787Z,90.12
2017-11-28T04:28:39.081Z,90.12
2017-11-28T04:31:08.255Z,90.14
2017-11-28T04:33:38.255Z,89.93
2017-11-28T04:36:07.433Z,89.87
2017-11-28T04:38:36.637Z,89.66
2017-11-28T04:41:05.936Z,89.57
2017-11-28T04:43:35.159Z,90.02
2017-11-28T04:46:05.157Z,90.03
2017-11-28T04:48:34.436Z,89.95
2017-11-28T04:51:03.716Z,89.54
2017-11-28T04:53:32.931Z,89.83
2017-11-28T04:56:02.213Z,89.66
2017-11-28T04:58:31.440Z,89.52
2017-11-28T05:01:00.625Z,89.44
2017-11-28T05:03:29.862Z,89.77
2017-11-28T05:05:59.835Z,89.73
2017-11-28T05:08:29.005Z,89.62
2017-11-28T05:10:58.259Z,89.46
2017-11-28T05:13:28.249Z,89.75
2017-11-28T05:15:57.580Z,89.62
2017-11-28T05:18:26.789Z,89.66
2017-11-28T05:20:56.017Z,89.43
2017-11-28T05:23:25.224Z,89.46
2017-11-28T05:25:54.455Z,89.41
2017-11-28T05:28:23.669Z,89.45
2017-11-28T05:30:52.874Z,89.38
2017-11-28T05:33:22.121Z,89.13
2017-11-28T05:35:51.302Z,89.30
2017-11-28T05:38:20.516Z,89.19
2017-11-28T05:40:49.685Z,89.50
2017-11-28T05:43:19.645Z,89.31
2017-11-28T05:45:53.181Z,89.22
2017-11-28T05:48:23.152Z,89.08
2017-11-28T05:50:52.332Z,88.73
2017-11-28T05:53:26.022Z,88.97
2017-11-28T05:55:55.244Z,88.47
2017-11-28T05:58:24.506Z,88.81
2017-11-28T06:00:53.717Z,88.76
2017-11-28T06:03:22.940Z,89.19
2017-11-28T06:05:52.223Z,89.09
2017-11-28T06:08:26.256Z,88.78
2017-11-28T06:10:55.523Z,88.17
2017-11-28T06:13:24.712Z,88.52
2017-11-28T06:15:54.700Z,88.20
2017-11-28T06:18:24.000Z,88.19
2017-11-28T06:20:53.192Z,88.28
2017-11-28T06:23:22.421Z,88.11
2017-11-28T06:25:51.705Z,88.18
2017-11-28T06:28:20.925Z,88.07
2017-11-28T06:30:50.181Z,87.97
2017-11-28T06:33:19.402Z,88.19
2017-11-28T06:35:48.581Z,88.12
2017-11-28T06:38:17.961Z,88.40
2017-11-28T06:40:47.157Z,88.11
2017-11-28T06:43:16.381Z,87.75
2017-11-28T06:45:45.545Z,87.63
2017-11-28T06:48:14.762Z,88.01
2017-11-28T06:50:43.981Z,87.92
2017-11-28T06:53:13.271Z,87.71
2017-11-28T06:55:42.509Z,87.73
2017-11-28T06:58:11.739Z,87.77
2017-11-28T07:00:40.963Z,87.78
2017-11-28T07:03:10.182Z,87.77
2017-11-28T07:05:40.216Z,87.70
2017-11-28T07:08:09.403Z,87.73
2017-11-28T07:10:38.641Z,87.74
2017-11-28T07:13:07.836Z,87.88
2017-11-28T07:15:37.004Z,87.79
2017-11-28T07:18:06.263Z,87.93
2017-11-28T07:20:35.473Z,87.86
2017-11-28T07:23:05.464Z,88.04
2017-11-28T07:25:34.698Z,88.17
2017-11-28T07:28:04.138Z,87.98
2017-11-28T07:30:33.322Z,87.79
2017-11-28T07:33:02.624Z,87.81
2017-11-28T07:35:32.774Z,87.74
2017-11-28T07:38:01.993Z,87.96
2017-11-28T07:40:31.181Z,88.23
2017-11-28T07:43:00.400Z,88.38
2017-11-28T07:45:30.346Z,88.29
2017-11-28T07:47:59.536Z,87.98
2017-11-28T07:50:28.776Z,88.19
2017-11-28T07:52:58.800Z,88.01
2017-11-28T07:55:27.999Z,87.94
2017-11-28T07:57:57.192Z,87.81
2017-11-28T08:00:27.213Z,87.97
2017-11-28T08:02:56.400Z,87.57
2017-11-28T08:05:25.702Z,87.58
2017-11-28T08:07:54.944Z,87.69
2017-11-28T08:10:24.151Z,87.51
2017-11-28T08:12:53.366Z,87.59
2017-11-28T08:15:22.533Z,87.41
2017-11-28T08:17:51.715Z,87.32
2017-11-28T08:20:21.692Z,87.39
2017-11-28T08:22:50.870Z,87.28
2017-11-28T08:25:20.113Z,86.98
2017-11-28T08:27:49.279Z,86.98
2017-11-28T08:30:18.486Z,87.05
2017-11-28T08:32:47.972Z,87.05
2017-11-28T08:35:17.150Z,86.53
2017-11-28T08:37:46.330Z,86.81
2017-11-28T08:40:15.620Z,86.65
2017-11-28T08:42:45.561Z,86.75
2017-11-28T08:45:14.753Z,86.49
2017-11-28T08:47:44.089Z,86.22
2017-11-28T08:50:13.262Z,86.54
2017-11-28T08:52:42.506Z,86.56
2017-11-28T08:55:12.501Z,86.60
2017-11-28T08:57:41.685Z,86.34
2017-11-28T09:00:10.923Z,86.67
2017-11-28T09:02:40.230Z,86.33
2017-11-28T09:05:09.477Z,86.32
2017-11-28T09:07:39.402Z,85.98
2017-11-28T09:10:08.700Z,85.93
2017-11-28T09:12:38.022Z,85.74
2017-11-28T09:15:07.487Z,85.99
2017-11-28T09:17:37.419Z,86.00
2017-11-28T09:20:06.666Z,86.28
2017-11-28T09:22:36.650Z,86.36
2017-11-28T09:25:06.711Z,86.50
2017-11-28T09:27:35.905Z,86.02
2017-11-28T09:30:05.893Z,85.64
2017-11-28T09:32:35.161Z,85.89
2017-11-28T09:35:04.344Z,85.30
2017-11-28T09:37:33.627Z,84.97
2017-11-28T09:40:03.553Z,85.66
2017-11-28T09:42:32.750Z,85.67
2017-11-28T09:45:01.933Z,85.13
2017-11-28T09:47:31.114Z,84.49
2017-11-28T09:50:01.079Z,84.81
2017-11-28T09:52:30.384Z,84.93
2017-11-28T09:54:59.752Z,84.87
2017-11-28T09:57:28.968Z,84.94
2017-11-28T09:59:58.220Z,84.68
2017-11-28T10:02:28.188Z,84.50
2017-11-28T10:04:57.405Z,84.43
2017-11-28T10:07:26.568Z,84.33
2017-11-28T10:09:55.840Z,84.02
2017-11-28T10:12:25.990Z,84.43
2017-11-28T10:14:55.171Z,84.34
2017-11-28T10:17:24.366Z,83.96
2017-11-28T10:19:53.566Z,84.42
2017-11-28T10:22:22.759Z,83.94
2017-11-28T10:24:51.966Z,83.87
2017-11-28T10:27:21.169Z,83.75
2017-11-28T10:29:50.410Z,83.12
2017-11-28T10:32:19.634Z,83.28
2017-11-28T10:34:49.601Z,83.01
2017-11-28T10:37:18.797Z,83.29
2017-11-28T10:39:47.989Z,83.59
2017-11-28T10:42:17.218Z,83.75
2017-11-28T10:44:46.399Z,83.70
2017-11-28T10:47:15.625Z,83.70
2017-11-28T10:49:45.568Z,83.52
2017-11-28T10:52:14.748Z,84.09
2017-11-28T10:54:44.838Z,84.00
2017-11-28T10:57:14.090Z,83.59
2017-11-28T10:59:43.295Z,84.06
2017-11-28T11:02:12.506Z,83.91
2017-11-28T11:04:41.798Z,83.23
2017-11-28T11:07:10.956Z,83.21
2017-11-28T11:09:40.935Z,83.51
2017-11-28T11:12:10.120Z,83.82
2017-11-28T11:14:39.324Z,83.91
2017-11-28T11:17:08.529Z,84.02
2017-11-28T11:19:37.798Z,83.34
2017-11-28T11:22:06.994Z,83.57
2017-11-28T11:24:36.190Z,83.25
2017-11-28T11:27:06.129Z,82.88
2017-11-28T11:29:35.341Z,83.04
2017-11-28T11:32:04.537Z,83.02
2017-11-28T11:34:33.741Z,83.00
2017-11-28T11:37:02.974Z,82.33
2017-11-28T11:39:32.159Z,83.12
2017-11-28T11:42:02.123Z,82.99
2017-11-28T11:44:31.343Z,83.23
2017-11-28T11:47:00.568Z,83.32
2017-11-28T11:49:30.506Z,83.27
2017-11-28T11:51:59.681Z,83.25
2017-11-28T11:54:28.896Z,83.43
2017-11-28T11:56:58.158Z,83.87
2017-11-28T11:59:27.365Z,82.82
2017-11-28T12:01:56.554Z,83.01
2017-11-28T12:07:01.182Z,82.50
2017-11-28T12:09:30.349Z,82.42
2017-11-28T12:11:59.527Z,80.76
2017-11-28T12:14:28.780Z,81.43
2017-11-28T12:16:57.941Z,81.06
2017-11-28T12:19:27.153Z,80.84
2017-11-28T12:21:56.370Z,80.96
2017-11-28T12:24:25.576Z,80.90
2017-11-28T12:26:55.524Z,80.68
2017-11-28T12:29:24.724Z,80.58
2017-11-28T12:31:53.905Z,80.44
2017-11-28T12:34:23.180Z,80.37
2017-11-28T12:36:53.157Z,79.27
2017-11-28T12:39:22.361Z,79.78
2017-11-28T12:41:51.816Z,80.12
2017-11-28T12:44:21.166Z,80.14
2017-11-28T12:46:50.461Z,79.85
2017-11-28T12:49:19.747Z,79.33
2017-11-28T12:51:48.965Z,78.87
2017-11-28T12:54:18.163Z,79.76
2017-11-28T12:56:47.352Z,79.66
2017-11-28T12:59:16.522Z,79.56
2017-11-28T13:01:45.820Z,79.77
2017-11-28T13:04:15.049Z,79.19
2017-11-28T13:06:44.325Z,79.97
2017-11-28T13:09:13.518Z,79.01
2017-11-28T13:11:42.721Z,79.59
2017-11-28T13:14:11.937Z,79.69
2017-11-28T13:16:41.104Z,77.84
2017-11-28T13:19:10.376Z,78.46
2017-11-28T13:21:40.325Z,78.70
2017-11-28T13:24:09.530Z,78.58
2017-11-28T13:26:39.613Z,78.76
2017-11-28T13:29:09.581Z,78.93
2017-11-28T13:31:39.535Z,79.02
2017-11-28T13:34:09.538Z,78.79
2017-11-28T13:36:39.505Z,78.61
2017-11-28T13:39:08.719Z,78.44
2017-11-28T13:41:37.985Z,78.84
2017-11-28T13:44:07.265Z,79.20
2017-11-28T13:46:36.470Z,79.21
2017-11-28T13:49:06.406Z,79.29
2017-11-28T13:51:36.959Z,79.24
2017-11-28T13:54:06.235Z,79.53
2017-11-28T13:56:35.420Z,79.15
2017-11-28T13:59:04.640Z,79.47
2017-11-28T14:01:33.973Z,79.54
2017-11-28T14:04:03.168Z,79.00
2017-11-28T14:06:32.517Z,79.23
2017-11-28T14:09:01.722Z,79.82
2017-11-28T14:11:30.926Z,79.94
2017-11-28T14:14:00.140Z,79.23
2017-11-28T14:16:29.419Z,79.03
2017-11-28T14:18:59.318Z,79.14
2017-11-28T14:35:18.910Z,78.31
2017-11-28T14:37:48.103Z,79.31
2017-11-28T14:40:17.378Z,78.89
2017-11-28T14:42:48.219Z,79.14
2017-11-28T14:45:18.144Z,78.75
2017-11-28T14:47:47.346Z,78.93
2017-11-28T14:50:16.615Z,79.05
2017-11-28T14:52:49.025Z,78.93
2017-11-28T14:55:23.638Z,79.06
2017-11-28T15:11:38.815Z,80.59
2017-11-28T15:14:13.472Z,80.92
2017-11-28T15:30:06.101Z,81.33
2017-11-28T15:32:36.111Z,81.56
2017-11-28T15:35:05.289Z,81.72
2017-11-28T15:37:34.517Z,81.64
2017-11-28T15:40:04.498Z,82.03
2017-11-28T15:42:33.714Z,81.89
2017-11-28T15:45:02.969Z,81.85
2017-11-28T15:47:32.937Z,81.95
2017-11-28T15:50:02.938Z,81.85
2017-11-28T15:52:32.242Z,82.15
2017-11-28T15:55:01.435Z,82.29
2017-11-28T15:57:30.634Z,82.44
2017-11-28T15:59:59.893Z,82.30
2017-11-28T16:02:29.079Z,82.46
2017-11-28T16:04:58.373Z,82.81
2017-11-28T16:07:27.565Z,82.60
2017-11-28T16:09:56.752Z,82.90
2017-11-28T16:12:26.711Z,83.06
2017-11-28T16:14:55.929Z,83.17
2017-11-28T16:17:25.124Z,83.33
2017-11-28T16:19:54.338Z,83.30
2017-11-28T16:22:23.566Z,83.58
2017-11-28T16:24:52.838Z,83.89
2017-11-28T16:27:22.080Z,83.97
2017-11-28T16:29:51.266Z,84.03
2017-11-28T16:32:20.530Z,84.60
2017-11-28T16:34:50.478Z,84.78
2017-11-28T16:37:19.734Z,84.71
2017-11-28T16:39:49.749Z,84.99
2017-11-28T16:42:18.954Z,84.82
2017-11-28T16:44:48.160Z,84.52
2017-11-28T16:47:18.131Z,84.54
2017-11-28T16:49:47.364Z,84.96
2017-11-28T16:52:16.573Z,86.67
2017-11-28T16:54:45.760Z,87.46
2017-11-28T16:57:14.940Z,87.31
2017-11-28T16:59:44.172Z,87.45
2017-11-28T17:02:14.183Z,87.40
2017-11-28T17:04:44.133Z,87.39
2017-11-28T17:07:13.378Z,87.58
2017-11-28T17:09:42.576Z,87.78
2017-11-28T17:12:12.606Z,88.28
2017-11-28T17:14:41.892Z,88.65
2017-11-28T17:17:11.135Z,88.26
2017-11-28T17:19:40.329Z,88.56
2017-11-28T17:22:09.573Z,88.84
2017-11-28T17:24:38.787Z,88.67
2017-11-28T17:27:08.116Z,88.22
2017-11-28T17:29:38.053Z,88.42
2017-11-28T17:32:07.289Z,88.22
2017-11-28T17:34:36.481Z,88.00
2017-11-28T17:37:05.704Z,87.95
2017-11-28T17:39:35.670Z,87.84
2017-11-28T17:42:04.939Z,87.93
2017-11-28T17:44:34.165Z,87.76
2017-11-28T17:47:03.390Z,87.40
2017-11-28T17:49:32.607Z,87.68
2017-11-28T17:52:01.795Z,87.76
2017-11-28T17:54:30.991Z,87.98
2017-11-28T17:57:00.244Z,87.88
2017-11-28T17:59:29.428Z,87.84
2017-11-28T18:01:58.662Z,87.82
2017-11-28T18:04:27.938Z,88.01
2017-11-28T18:06:57.109Z,88.17
2017-11-28T18:09:27.090Z,88.12
2017-11-28T18:11:56.279Z,88.07
2017-11-28T18:14:25.521Z,87.95
2017-11-28T18:16:55.467Z,88.17
2017-11-28T18:19:25.429Z,88.14
2017-11-28T18:21:55.477Z,88.21
2017-11-28T18:24:24.675Z,88.47
2017-11-28T18:26:53.902Z,88.29
2017-11-28T18:29:23.095Z,88.21
2017-11-28T18:31:52.281Z,88.35
2017-11-28T18:34:21.498Z,88.53
2017-11-28T18:36:50.745Z,88.34
2017-11-28T18:39:20.737Z,88.17
2017-11-28T18:41:49.956Z,88.25
2017-11-28T18:44:19.211Z,88.13
2017-11-28T18:46:48.427Z,88.25
2017-11-28T18:49:17.664Z,88.28
2017-11-28T18:51:47.668Z,87.66
2017-11-28T18:54:17.624Z,88.26
2017-11-28T18:56:46.840Z,88.11
2017-11-28T18:59:16.074Z,87.99
2017-11-28T19:01:46.011Z,88.34
2017-11-28T19:04:15.194Z,88.57
2017-11-28T19:06:45.188Z,88.42
2017-11-28T19:09:14.403Z,88.97
2017-11-28T19:11:44.407Z,88.91
2017-11-28T19:14:13.662Z,88.80
2017-11-28T19:16:43.240Z,88.92
2017-11-28T19:19:13.374Z,89.02
2017-11-28T19:21:42.597Z,89.12
2017-11-28T19:24:11.810Z,89.12
2017-11-28T19:26:41.026Z,89.57
2017-11-28T19:29:11.001Z,89.14
2017-11-28T19:31:40.248Z,89.57
2017-11-28T19:34:10.338Z,89.64
2017-11-28T19:36:39.615Z,89.46
2017-11-28T19:39:08.786Z,89.54
2017-11-28T19:41:38.090Z,89.52
2017-11-28T19:44:08.072Z,89.43
2017-11-28T19:46:38.067Z,89.30
2017-11-28T19:49:07.297Z,89.11
2017-11-28T19:51:36.551Z,89.01
2017-11-28T19:54:05.996Z,88.79
2017-11-28T19:56:35.984Z,88.65
2017-11-28T19:59:06.082Z,88.79
2017-11-28T20:01:35.315Z,88.68
2017-11-28T20:04:05.321Z,88.81
2017-11-28T20:06:34.517Z,88.49
2017-11-28T20:09:04.500Z,88.54
2017-11-28T20:11:33.709Z,88.55
2017-11-28T20:14:02.968Z,88.42
2017-11-28T20:16:32.176Z,88.36
2017-11-28T20:19:01.415Z,88.43
2017-11-28T20:21:30.684Z,88.49
2017-11-28T20:23:59.933Z,88.42
2017-11-28T20:26:29.896Z,88.59
2017-11-28T20:28:59.095Z,88.38
2017-11-28T20:31:28.388Z,88.17
2017-11-28T20:33:57.635Z,88.08
2017-11-28T20:36:26.921Z,87.99
2017-11-28T20:38:56.091Z,87.90
2017-11-28T20:41:25.344Z,87.92
2017-11-28T20:43:54.582Z,87.66
2017-11-28T20:46:23.881Z,87.89
2017-11-28T20:48:53.104Z,87.76
2017-11-28T20:51:22.333Z,87.81
2017-11-28T20:53:52.382Z,87.77
2017-11-28T20:56:21.572Z,87.67
2017-11-28T20:58:50.809Z,87.71
2017-11-28T21:01:20.084Z,87.73
2017-11-28T21:03:49.333Z,87.81
2017-11-28T21:06:18.517Z,87.89
2017-11-28T21:08:47.739Z,87.82
2017-11-28T21:11:17.698Z,88.19
2017-11-28T21:13:46.932Z,87.96
2017-11-28T21:16:16.153Z,87.88
2017-11-28T21:18:45.395Z,87.87
2017-11-28T21:21:14.589Z,88.21
2017-11-28T21:23:43.908Z,88.08
2017-11-28T21:26:13.144Z,88.01
2017-11-28T21:28:43.100Z,87.83
2017-11-28T21:31:12.438Z,87.78
2017-11-28T21:33:41.644Z,87.67
2017-11-28T21:36:11.655Z,87.71
2017-11-28T21:38:40.913Z,87.49
2017-11-28T21:41:10.283Z,87.31
2017-11-28T21:43:39.450Z,87.02
2017-11-28T21:46:08.700Z,86.96
2017-11-28T21:48:37.960Z,86.98
2017-11-28T21:51:07.181Z,86.81
2017-11-28T21:53:36.428Z,86.77
2017-11-28T21:56:06.405Z,86.06
2017-11-28T21:58:35.627Z,86.44
2017-11-28T22:01:05.621Z,86.62
2017-11-28T22:03:34.861Z,86.76
2017-11-28T22:06:04.120Z,86.99
2017-11-28T22:08:33.326Z,86.68
2017-11-28T22:11:02.567Z,86.01
2017-11-28T22:13:31.759Z,85.82
2017-11-28T22:16:00.970Z,85.89
2017-11-28T22:18:30.912Z,85.63
2017-11-28T22:21:00.140Z,85.44
2017-11-28T22:23:29.323Z,85.81
2017-11-28T22:25:58.542Z,85.48
2017-11-28T22:28:27.734Z,85.72
2017-11-28T22:30:56.966Z,85.86
2017-11-28T22:33:26.177Z,85.66
2017-11-28T22:35:56.128Z,85.85
2017-11-28T22:38:25.336Z,86.11
2017-11-28T22:40:54.521Z,86.07
2017-11-28T22:43:23.749Z,86.27
2017-11-28T22:45:52.944Z,86.37
2017-11-28T22:48:22.169Z,86.38
2017-11-28T22:50:52.258Z,86.38
2017-11-28T22:53:21.468Z,86.47
2017-11-28T22:55:50.670Z,86.53
2017-11-28T22:58:19.880Z,86.57
2017-11-28T23:00:49.884Z,86.73
2017-11-28T23:03:19.129Z,87.04
2017-11-28T23:05:48.385Z,87.13
2017-11-28T23:08:17.569Z,86.83
2017-11-28T23:10:46.794Z,86.86
2017-11-28T23:13:16.245Z,86.74
2017-11-28T23:15:45.484Z,87.01
2017-11-28T23:18:14.671Z,87.12
2017-11-28T23:20:43.917Z,87.22
2017-11-28T23:23:13.101Z,87.33
2017-11-28T23:25:42.345Z,87.26
2017-11-28T23:28:11.579Z,87.29
2017-11-28T23:30:40.798Z,87.20
2017-11-28T23:33:10.070Z,87.29
2017-11-28T23:35:40.143Z,87.63
2017-11-28T23:38:09.347Z,87.50
2017-11-28T23:40:38.619Z,87.67
2017-11-28T23:43:07.836Z,87.76
2017-11-28T23:45:37.021Z,87.62
2017-11-28T23:48:06.297Z,87.60
2017-11-28T23:50:35.501Z,87.79
2017-11-28T23:53:04.764Z,87.87
2017-11-28T23:55:33.992Z,87.87
2017-11-28T23:58:03.206Z,88.17
